ADDS METAR Data INFO
IDs: Format: Raw Decoded Include TAF

Data at: 1516 UTC 21 Feb 2018

KACB 201455Z AUTO 15005KT 4SM UP OVC007 04/04 A2984 RMK AO2 T00440044
KACB 211435Z AUTO 33004KT 10SM OVC021 M04/M06 A3045 RMK AO2 T10381065
KACB 211415Z AUTO 00000KT 10SM OVC021 M04/M06 A3043 RMK AO2 T10381065
KACB 211355Z AUTO 35004KT 10SM OVC021 M04/M06 A3043 RMK AO2 T10371065
KACB 211335Z AUTO 31006KT 10SM OVC021 M04/M07 A3041 RMK AO2 T10371066
KACB 211315Z AUTO 33005KT 10SM OVC019 M04/M06 A3040 RMK AO2 T10361060
KACB 211255Z AUTO 31005KT 10SM OVC017 M03/M05 A3039 RMK AO2 T10351055
KACB 211235Z AUTO 31005KT 10SM OVC017 M03/M05 A3037 RMK AO2 T10351054
KACB 201515Z AUTO 00000KT 3/4SM -DZ BKN004 BKN007 OVC036 05/05 A2982 RMK AO2 VIS 1/2V2 1/2 T00450045
KACB 201455Z AUTO 15005KT 4SM UP OVC007 04/04 A2984 RMK AO2 T00440044
KACB 201435Z AUTO 00000KT 2SM -SN OVC007 05/05 A2986 RMK AO2 T00520052
KACB 201415Z AUTO 00000KT 1/2SM -SN OVC005 03/03 A2984 RMK AO2 T00320032
KACB 201355Z AUTO 00000KT 1/4SM -SN OVC005 03/03 A2983 RMK AO2 T00260026
KACB 201335Z AUTO 00000KT 1/4SM -SN OVC005 03/03 A2981 RMK AO2 T00290029
KACB 201315Z AUTO 00000KT 1SM -SN OVC007 03/03 A2979 RMK AO2 T00250025
KACB 201255Z AUTO 00000KT 1 1/2SM -SN OVC007 03/03 A2979 RMK AO2 VIS 1V2 1/2 T00290029
KACB 201235Z AUTO 00000KT 2SM -SN OVC007 03/03 A2979 RMK AO2 T00290029
KACB 201215Z AUTO 00000KT 10SM OVC007 03/03 A2980 RMK AO2 T00340034
KACB 201155Z AUTO 00000KT 3SM BR OVC007 03/03 A2980 RMK AO2 T00320032 10032 20020
KACB 201135Z AUTO 00000KT 2 1/2SM BR OVC007 03/03 A2980 RMK AO2 T00280028
KACB 201115Z AUTO 00000KT 10SM OVC009 03/03 A2980 RMK AO2 T00280028
KACB 201055Z AUTO 00000KT 4SM BR OVC007 03/03 A2980 RMK AO2 T00260026
KACB 201035Z AUTO 00000KT 3SM BR OVC005 03/03 A2982 RMK AO2 T00250025
KACB 201015Z AUTO 00000KT 2 1/2SM -SN OVC005 03/03 A2982 RMK AO2 T00250025
KACB 200955Z AUTO 00000KT 3SM BR BKN007 OVC011 02/02 A2982 RMK AO2 T00240024
KACB 200935Z AUTO 00000KT 4SM UP OVC011 02/02 A2982 RMK AO2 T00230023
KACB 200915Z AUTO 08004KT 4SM UP SCT006 OVC009 02/02 A2984 RMK AO2 T00220022
KACB 200855Z AUTO 00000KT 2 1/2SM -SN OVC009 02/02 A2983 RMK AO2 T00220022
KACB 200835Z AUTO 08006KT 3SM BR OVC009 02/02 A2984 RMK AO2 T00220022
KACB 200815Z AUTO 08004KT 4SM -SN BKN009 OVC013 02/02 A2985 RMK AO2 T00220022
KACB 200755Z AUTO 10004KT 4SM -SN BKN009 OVC013 02/02 A2985 RMK AO2 T00220021
KACB 200735Z AUTO 09005KT 3SM UP BKN009 OVC014 02/02 A2985 RMK AO2 T00220021
KACB 200715Z AUTO 00000KT 4SM -SN BKN009 OVC016 02/02 A2986 RMK AO2 T00210021
KACB 200655Z AUTO 00000KT 3SM -SN BKN009 OVC016 02/02 A2986 RMK AO2 T00200020
KACB 200635Z AUTO 09005KT 2 1/2SM -SN BKN009 OVC016 02/02 A2985 RMK AO2 T00200020
KACB 200615Z AUTO 10004KT 4SM UP OVC009 02/02 A2986 RMK AO2 T00200020
KACB 200555Z AUTO 07004KT 4SM -SN OVC009 02/02 A2987 RMK AO2 T00200020 10029 20016 400561024
KACB 200535Z AUTO 08004KT 3SM -SN OVC009 02/02 A2987 RMK AO2 T00200020
KACB 200515Z AUTO 08003KT 3SM -SN OVC009 02/02 A2988 RMK AO2 T00200020
KACB 200455Z AUTO 08004KT 4SM UP OVC011 02/02 A2988 RMK AO2 T00190018
KACB 200435Z AUTO 00000KT 3SM -RA BKN011 OVC016 02/02 A2989 RMK AO2 T00170015
KACB 200415Z AUTO 04003KT 2SM -SN BKN013 OVC023 02/02 A2989 RMK AO2 T00180015
KACB 200355Z AUTO 06004KT 10SM -RA OVC011 02/01 A2989 RMK AO2 T00180014
KACB 200335Z AUTO 08006KT 10SM OVC011 02/02 A2989 RMK AO2 T00170015